sensor_id;sensor_type;location;lat;lon;timestamp;pressure;altitude;pressure_sealevel;temperature;humidity
69245;BME280;56357;52.304;4.870;2022-09-30T00:01:23;101048.84;;;17.54;nan
69245;BME280;56357;52.304;4.870;2022-09-30T00:03:51;101045.22;;;17.58;nan
69245;BME280;56357;52.304;4.870;2022-09-30T00:06:17;101053.59;;;17.48;nan
69245;BME280;56357;52.304;4.870;2022-09-30T00:08:45;101046.91;;;17.59;nan
69245;BME280;56357;52.304;4.870;2022-09-30T00:11:13;101042.13;;;17.60;nan
69245;BME280;56357;52.304;4.870;2022-09-30T00:13:40;101042.13;;;17.55;nan
69245;BME280;56357;52.304;4.870;2022-09-30T00:16:08;101046.84;;;17.49;nan
69245;BME280;56357;52.304;4.870;2022-09-30T00:18:35;101054.47;;;17.59;nan
69245;BME280;56357;52.304;4.870;2022-09-30T00:21:02;101048.88;;;17.64;nan
69245;BME280;56357;52.304;4.870;2022-09-30T00:23:28;101051.94;;;17.57;nan
69245;BME280;56357;52.304;4.870;2022-09-30T00:25:58;101045.19;;;17.53;nan
69245;BME280;56357;52.304;4.870;2022-09-30T00:28:25;101044.06;;;17.54;nan
69245;BME280;56357;52.304;4.870;2022-09-30T00:30:52;101041.78;;;17.46;nan
69245;BME280;56357;52.304;4.870;2022-09-30T00:33:19;101042.69;;;17.52;nan
69245;BME280;56357;52.304;4.870;2022-09-30T00:35:45;101048.19;;;17.47;nan
69245;BME280;56357;52.304;4.870;2022-09-30T00:38:11;101044.06;;;17.54;nan
69245;BME280;56357;52.304;4.870;2022-09-30T00:40:37;101041.25;;;17.49;nan
69245;BME280;56357;52.304;4.870;2022-09-30T00:43:14;101041.22;;;17.44;nan
69245;BME280;56357;52.304;4.870;2022-09-30T00:45:47;101035.34;;;17.46;nan
69245;BME280;56357;52.304;4.870;2022-09-30T00:48:16;101040.06;;;17.45;nan
69245;BME280;56357;52.304;4.870;2022-09-30T00:50:44;101037.28;;;17.45;nan
69245;BME280;56357;52.304;4.870;2022-09-30T00:53:27;101041.25;;;17.49;nan
69245;BME280;56357;52.304;4.870;2022-09-30T00:56:02;101050.19;;;17.46;nan
69245;BME280;56357;52.304;4.870;2022-09-30T01:01:01;101046.19;;;17.37;nan
69245;BME280;56357;52.304;4.870;2022-09-30T01:03:30;101049.19;;;17.25;nan
69245;BME280;56357;52.304;4.870;2022-09-30T01:05:58;101052.88;;;17.31;nan
69245;BME280;56357;52.304;4.870;2022-09-30T01:08:26;101055.41;;;17.32;nan
69245;BME280;56357;52.304;4.870;2022-09-30T01:10:53;101050.69;;;17.38;nan
69245;BME280;56357;52.304;4.870;2022-09-30T01:13:20;101048.66;;;17.28;nan
69245;BME280;56357;52.304;4.870;2022-09-30T01:19:02;101050.97;;;17.36;nan
69245;BME280;56357;52.304;4.870;2022-09-30T01:24:15;101061.84;;;17.33;nan
69245;BME280;56357;52.304;4.870;2022-09-30T01:26:48;101059.59;;;17.35;nan
69245;BME280;56357;52.304;4.870;2022-09-30T01:31:53;101053.41;;;17.28;nan
69245;BME280;56357;52.304;4.870;2022-09-30T01:37:09;101058.44;;;17.26;nan
69245;BME280;56357;52.304;4.870;2022-09-30T01:40:04;101053.41;;;17.23;nan
69245;BME280;56357;52.304;4.870;2022-09-30T01:42:34;101057.28;;;17.17;nan
69245;BME280;56357;52.304;4.870;2022-09-30T01:45:05;101049.69;;;17.17;nan
69245;BME280;56357;52.304;4.870;2022-09-30T01:50:22;101044.44;;;17.21;nan
69245;BME280;56357;52.304;4.870;2022-09-30T01:52:57;101051.41;;;17.18;nan
69245;BME280;56357;52.304;4.870;2022-09-30T01:55:30;101058.16;;;17.22;nan
69245;BME280;56357;52.304;4.870;2022-09-30T01:58:04;101053.13;;;17.29;nan
69245;BME280;56357;52.304;4.870;2022-09-30T02:00:35;101062.91;;;17.22;nan
69245;BME280;56357;52.304;4.870;2022-09-30T02:03:20;101045.50;;;17.15;nan
69245;BME280;56357;52.304;4.870;2022-09-30T02:05:49;101048.31;;;17.20;nan
69245;BME280;56357;52.304;4.870;2022-09-30T02:08:30;101044.72;;;17.24;nan
69245;BME280;56357;52.304;4.870;2022-09-30T02:11:34;101046.94;;;17.22;nan
69245;BME280;56357;52.304;4.870;2022-09-30T02:13:58;101046.03;;;17.12;nan
69245;BME280;56357;52.304;4.870;2022-09-30T02:17:01;101043.28;;;17.17;nan
69245;BME280;56357;52.304;4.870;2022-09-30T02:19:20;101052.19;;;17.14;nan
69245;BME280;56357;52.304;4.870;2022-09-30T02:21:57;101047.72;;;17.13;nan
69245;BME280;56357;52.304;4.870;2022-09-30T02:24:25;101045.00;;;17.23;nan
69245;BME280;56357;52.304;4.870;2022-09-30T02:26:52;101039.91;;;17.15;nan
69245;BME280;56357;52.304;4.870;2022-09-30T02:29:21;101043.84;;;17.19;nan
69245;BME280;56357;52.304;4.870;2022-09-30T02:31:52;101048.63;;;17.23;nan
69245;BME280;56357;52.304;4.870;2022-09-30T02:34:21;101046.31;;;17.10;nan
69245;BME280;56357;52.304;4.870;2022-09-30T02:36:56;101055.09;;;17.29;nan
69245;BME280;56357;52.304;4.870;2022-09-30T02:41:58;101074.34;;;17.15;nan
69245;BME280;56357;52.304;4.870;2022-09-30T02:44:27;101079.59;;;17.12;nan
69245;BME280;56357;52.304;4.870;2022-09-30T02:47:06;101076.81;;;17.12;nan
69245;BME280;56357;52.304;4.870;2022-09-30T02:49:40;101065.13;;;17.20;nan
69245;BME280;56357;52.304;4.870;2022-09-30T02:57:21;101057.47;;;17.05;nan
69245;BME280;56357;52.304;4.870;2022-09-30T02:59:51;101066.16;;;17.09;nan
69245;BME280;56357;52.304;4.870;2022-09-30T03:02:18;101065.09;;;17.15;nan
69245;BME280;56357;52.304;4.870;2022-09-30T03:04:45;101069.63;;;17.21;nan
69245;BME280;56357;52.304;4.870;2022-09-30T03:07:12;101076.78;;;17.07;nan
69245;BME280;56357;52.304;4.870;2022-09-30T03:09:39;101070.03;;;17.03;nan
69245;BME280;56357;52.304;4.870;2022-09-30T03:12:10;101080.94;;;17.04;nan
69245;BME280;56357;52.304;4.870;2022-09-30T03:27:59;101077.88;;;17.06;nan
69245;BME280;56357;52.304;4.870;2022-09-30T03:30:27;101083.16;;;17.02;nan
69245;BME280;56357;52.304;4.870;2022-09-30T03:38:21;101089.34;;;17.04;nan
69245;BME280;56357;52.304;4.870;2022-09-30T03:45:49;101094.13;;;17.04;nan
69245;BME280;56357;52.304;4.870;2022-09-30T03:48:20;101096.94;;;17.09;nan
69245;BME280;56357;52.304;4.870;2022-09-30T03:50:48;101095.19;;;16.98;nan
69245;BME280;56357;52.304;4.870;2022-09-30T03:53:14;101091.63;;;17.07;nan
69245;BME280;56357;52.304;4.870;2022-09-30T03:55:45;101098.00;;;17.03;nan
69245;BME280;56357;52.304;4.870;2022-09-30T03:58:13;101101.09;;;17.01;nan
69245;BME280;56357;52.304;4.870;2022-09-30T04:00:40;101102.44;;;16.94;nan
69245;BME280;56357;52.304;4.870;2022-09-30T04:03:09;101104.28;;;16.83;nan
69245;BME280;56357;52.304;4.870;2022-09-30T04:05:35;101110.84;;;16.99;nan
69245;BME280;56357;52.304;4.870;2022-09-30T04:08:02;101112.22;;;16.96;nan
69245;BME280;56357;52.304;4.870;2022-09-30T04:10:28;101119.22;;;16.94;nan
69245;BME280;56357;52.304;4.870;2022-09-30T04:12:54;101117.56;;;16.98;nan
69245;BME280;56357;52.304;4.870;2022-09-30T04:15:21;101118.72;;;17.02;nan
69245;BME280;56357;52.304;4.870;2022-09-30T04:17:48;101111.47;;;17.06;nan
69245;BME280;56357;52.304;4.870;2022-09-30T04:20:14;101108.16;;;17.14;nan
69245;BME280;56357;52.304;4.870;2022-09-30T04:22:40;101120.59;;;16.96;nan
69245;BME280;56357;52.304;4.870;2022-09-30T04:25:07;101123.59;;;16.85;nan
69245;BME280;56357;52.304;4.870;2022-09-30T04:27:33;101124.16;;;16.87;nan
69245;BME280;56357;52.304;4.870;2022-09-30T04:29:59;101123.16;;;16.98;nan
69245;BME280;56357;52.304;4.870;2022-09-30T04:32:26;101131.00;;;17.01;nan
69245;BME280;56357;52.304;4.870;2022-09-30T04:34:52;101121.19;;;16.98;nan
69245;BME280;56357;52.304;4.870;2022-09-30T04:37:19;101115.56;;;17.30;nan
69245;BME280;56357;52.304;4.870;2022-09-30T04:39:46;101128.81;;;17.08;nan
69245;BME280;56357;52.304;4.870;2022-09-30T04:42:12;101124.22;;;16.92;nan
69245;BME280;56357;52.304;4.870;2022-09-30T04:44:38;101124.63;;;17.05;nan
69245;BME280;56357;52.304;4.870;2022-09-30T04:47:04;101131.69;;;17.13;nan
69245;BME280;56357;52.304;4.870;2022-09-30T04:49:31;101132.53;;;17.13;nan
69245;BME280;56357;52.304;4.870;2022-09-30T04:51:57;101131.09;;;17.11;nan
69245;BME280;56357;52.304;4.870;2022-09-30T04:54:24;101140.28;;;17.06;nan
69245;BME280;56357;52.304;4.870;2022-09-30T04:56:50;101134.34;;;16.98;nan
69245;BME280;56357;52.304;4.870;2022-09-30T04:59:16;101135.34;;;16.87;nan
69245;BME280;56357;52.304;4.870;2022-09-30T05:01:43;101138.88;;;17.04;nan
69245;BME280;56357;52.304;4.870;2022-09-30T05:04:09;101148.28;;;16.93;nan
69245;BME280;56357;52.304;4.870;2022-09-30T05:06:37;101147.22;;;16.99;nan
69245;BME280;56357;52.304;4.870;2022-09-30T05:09:04;101151.16;;;16.98;nan
69245;BME280;56357;52.304;4.870;2022-09-30T05:11:31;101152.91;;;17.09;nan
69245;BME280;56357;52.304;4.870;2022-09-30T05:13:57;101155.28;;;16.90;nan
69245;BME280;56357;52.304;4.870;2022-09-30T05:16:24;101158.41;;;16.99;nan
69245;BME280;56357;52.304;4.870;2022-09-30T05:18:51;101162.75;;;17.11;nan
69245;BME280;56357;52.304;4.870;2022-09-30T05:21:18;101165.63;;;16.90;nan
69245;BME280;56357;52.304;4.870;2022-09-30T05:23:44;101159.75;;;16.91;nan
69245;BME280;56357;52.304;4.870;2022-09-30T05:26:11;101155.63;;;16.99;nan
69245;BME280;56357;52.304;4.870;2022-09-30T05:28:38;101159.00;;;17.01;nan
69245;BME280;56357;52.304;4.870;2022-09-30T05:31:04;101155.44;;;17.10;nan
69245;BME280;56357;52.304;4.870;2022-09-30T05:33:31;101151.97;;;17.30;nan
69245;BME280;56357;52.304;4.870;2022-09-30T05:35:58;101158.66;;;17.29;nan
69245;BME280;56357;52.304;4.870;2022-09-30T05:38:25;101154.97;;;17.55;nan
69245;BME280;56357;52.304;4.870;2022-09-30T05:40:52;101155.66;;;17.40;nan
69245;BME280;56357;52.304;4.870;2022-09-30T05:43:18;101160.75;;;17.44;nan
69245;BME280;56357;52.304;4.870;2022-09-30T05:45:52;101152.06;;;17.40;nan
69245;BME280;56357;52.304;4.870;2022-09-30T05:48:18;101155.53;;;17.20;nan
69245;BME280;56357;52.304;4.870;2022-09-30T05:50:45;101154.19;;;17.28;nan
69245;BME280;56357;52.304;4.870;2022-09-30T05:53:18;101152.69;;;17.15;nan
69245;BME280;56357;52.304;4.870;2022-09-30T05:55:45;101158.13;;;17.32;nan
69245;BME280;56357;52.304;4.870;2022-09-30T05:58:13;101150.13;;;17.46;nan
69245;BME280;56357;52.304;4.870;2022-09-30T06:00:43;101152.84;;;17.35;nan
69245;BME280;56357;52.304;4.870;2022-09-30T06:03:09;101156.34;;;17.53;nan
69245;BME280;56357;52.304;4.870;2022-09-30T06:05:36;101157.84;;;17.65;nan
69245;BME280;56357;52.304;4.870;2022-09-30T06:08:03;101163.47;;;17.70;nan
69245;BME280;56357;52.304;4.870;2022-09-30T06:10:31;101164.28;;;17.66;nan
69245;BME280;56357;52.304;4.870;2022-09-30T06:12:58;101170.22;;;17.74;nan
69245;BME280;56357;52.304;4.870;2022-09-30T06:15:24;101170.53;;;17.78;nan
69245;BME280;56357;52.304;4.870;2022-09-30T06:17:51;101167.50;;;17.84;nan
69245;BME280;56357;52.304;4.870;2022-09-30T06:20:18;101173.41;;;17.88;nan
69245;BME280;56357;52.304;4.870;2022-09-30T06:22:44;101176.44;;;17.81;nan
69245;BME280;56357;52.304;4.870;2022-09-30T06:25:10;101181.50;;;17.84;nan
69245;BME280;56357;52.304;4.870;2022-09-30T06:27:37;101178.38;;;17.81;nan
69245;BME280;56357;52.304;4.870;2022-09-30T06:30:04;101188.88;;;18.00;nan
69245;BME280;56357;52.304;4.870;2022-09-30T06:32:31;101192.31;;;18.12;nan
69245;BME280;56357;52.304;4.870;2022-09-30T06:34:57;101187.00;;;18.16;nan
69245;BME280;56357;52.304;4.870;2022-09-30T06:37:24;101196.22;;;18.11;nan
69245;BME280;56357;52.304;4.870;2022-09-30T06:39:50;101199.34;;;18.25;nan
69245;BME280;56357;52.304;4.870;2022-09-30T06:42:17;101205.75;;;18.15;nan
69245;BME280;56357;52.304;4.870;2022-09-30T06:44:43;101205.50;;;18.17;nan
69245;BME280;56357;52.304;4.870;2022-09-30T06:47:11;101212.41;;;17.99;nan
69245;BME280;56357;52.304;4.870;2022-09-30T06:49:37;101205.75;;;18.10;nan
69245;BME280;56357;52.304;4.870;2022-09-30T06:52:04;101206.81;;;18.04;nan
69245;BME280;56357;52.304;4.870;2022-09-30T06:54:30;101209.06;;;18.02;nan
69245;BME280;56357;52.304;4.870;2022-09-30T06:56:57;101207.66;;;18.00;nan
69245;BME280;56357;52.304;4.870;2022-09-30T06:59:23;101211.84;;;18.02;nan
69245;BME280;56357;52.304;4.870;2022-09-30T07:01:50;101207.47;;;18.16;nan
69245;BME280;56357;52.304;4.870;2022-09-30T07:04:16;101210.41;;;17.90;nan
69245;BME280;56357;52.304;4.870;2022-09-30T07:06:42;101212.38;;;17.94;nan
69245;BME280;56357;52.304;4.870;2022-09-30T07:09:09;101207.88;;;17.93;nan
69245;BME280;56357;52.304;4.870;2022-09-30T07:11:36;101206.81;;;18.04;nan
69245;BME280;56357;52.304;4.870;2022-09-30T07:14:03;101190.56;;;18.01;nan
69245;BME280;56357;52.304;4.870;2022-09-30T07:16:30;101198.13;;;18.06;nan
69245;BME280;56357;52.304;4.870;2022-09-30T07:18:57;101197.56;;;18.04;nan
69245;BME280;56357;52.304;4.870;2022-09-30T07:21:24;101190.63;;;18.11;nan
69245;BME280;56357;52.304;4.870;2022-09-30T07:23:50;101175.53;;;18.22;nan
69245;BME280;56357;52.304;4.870;2022-09-30T07:26:21;101181.94;;;18.18;nan
69245;BME280;56357;52.304;4.870;2022-09-30T07:28:47;101176.03;;;18.09;nan
69245;BME280;56357;52.304;4.870;2022-09-30T07:31:15;101173.81;;;18.11;nan
69245;BME280;56357;52.304;4.870;2022-09-30T07:33:42;101182.75;;;18.13;nan
69245;BME280;56357;52.304;4.870;2022-09-30T07:36:09;101183.66;;;18.19;nan
69245;BME280;56357;52.304;4.870;2022-09-30T07:38:36;101172.16;;;18.25;nan
69245;BME280;56357;52.304;4.870;2022-09-30T07:41:05;101168.03;;;18.38;nan
69245;BME280;56357;52.304;4.870;2022-09-30T07:43:33;101170.47;;;18.19;nan
69245;BME280;56357;52.304;4.870;2022-09-30T07:46:11;101173.25;;;18.19;nan
69245;BME280;56357;52.304;4.870;2022-09-30T07:48:42;101170.50;;;18.29;nan
69245;BME280;56357;52.304;4.870;2022-09-30T07:51:12;101171.66;;;18.34;nan
69245;BME280;56357;52.304;4.870;2022-09-30T07:53:39;101156.50;;;18.29;nan
69245;BME280;56357;52.304;4.870;2022-09-30T07:56:06;101159.88;;;18.37;nan
69245;BME280;56357;52.304;4.870;2022-09-30T07:58:32;101167.47;;;18.36;nan
69245;BME280;56357;52.304;4.870;2022-09-30T08:00:59;101157.38;;;18.40;nan
69245;BME280;56357;52.304;4.870;2022-09-30T08:03:25;101166.03;;;18.34;nan
69245;BME280;56357;52.304;4.870;2022-09-30T08:05:51;101163.59;;;18.42;nan
69245;BME280;56357;52.304;4.870;2022-09-30T08:08:17;101162.72;;;18.42;nan
69245;BME280;56357;52.304;4.870;2022-09-30T08:10:44;101158.56;;;18.49;nan
69245;BME280;56357;52.304;4.870;2022-09-30T08:13:10;101168.63;;;18.50;nan
69245;BME280;56357;52.304;4.870;2022-09-30T08:15:38;101172.88;;;18.48;nan
69245;BME280;56357;52.304;4.870;2022-09-30T08:18:04;101181.19;;;18.38;nan
69245;BME280;56357;52.304;4.870;2022-09-30T08:20:30;101188.56;;;18.49;nan
69245;BME280;56357;52.304;4.870;2022-09-30T08:22:57;101186.06;;;18.57;nan
69245;BME280;56357;52.304;4.870;2022-09-30T08:25:23;101175.94;;;18.51;nan
69245;BME280;56357;52.304;4.870;2022-09-30T08:27:50;101184.09;;;18.53;nan
69245;BME280;56357;52.304;4.870;2022-09-30T08:30:16;101181.53;;;18.46;nan
69245;BME280;56357;52.304;4.870;2022-09-30T08:32:42;101189.97;;;18.51;nan
69245;BME280;56357;52.304;4.870;2022-09-30T08:35:09;101190.25;;;18.60;nan
69245;BME280;56357;52.304;4.870;2022-09-30T08:37:35;101192.78;;;18.56;nan
69245;BME280;56357;52.304;4.870;2022-09-30T08:40:01;101191.41;;;18.59;nan
69245;BME280;56357;52.304;4.870;2022-09-30T08:42:49;101190.81;;;18.52;nan
69245;BME280;56357;52.304;4.870;2022-09-30T08:45:32;101202.28;;;18.45;nan
69245;BME280;56357;52.304;4.870;2022-09-30T08:48:13;101199.25;;;18.62;nan
69245;BME280;56357;52.304;4.870;2022-09-30T08:53:30;101194.50;;;18.57;nan
69245;BME280;56357;52.304;4.870;2022-09-30T08:55:58;101190.31;;;18.65;nan
69245;BME280;56357;52.304;4.870;2022-09-30T08:58:27;101183.59;;;18.71;nan
69245;BME280;56357;52.304;4.870;2022-09-30T09:00:55;101184.16;;;18.73;nan
69245;BME280;56357;52.304;4.870;2022-09-30T09:03:25;101184.97;;;18.68;nan
69245;BME280;56357;52.304;4.870;2022-09-30T09:16:34;101198.19;;;18.78;nan
69245;BME280;56357;52.304;4.870;2022-09-30T09:19:09;101189.19;;;18.81;nan
69245;BME280;56357;52.304;4.870;2022-09-30T09:24:17;101181.91;;;18.85;nan
69245;BME280;56357;52.304;4.870;2022-09-30T09:26:44;101175.19;;;19.06;nan
69245;BME280;56357;52.304;4.870;2022-09-30T09:31:38;101179.41;;;18.98;nan
69245;BME280;56357;52.304;4.870;2022-09-30T09:34:08;101167.63;;;19.06;nan
69245;BME280;56357;52.304;4.870;2022-09-30T09:36:53;101182.50;;;19.12;nan
69245;BME280;56357;52.304;4.870;2022-09-30T09:44:54;101177.78;;;19.43;nan
69245;BME280;56357;52.304;4.870;2022-09-30T09:47:24;101168.75;;;19.56;nan
69245;BME280;56357;52.304;4.870;2022-09-30T09:49:52;101174.66;;;19.69;nan
69245;BME280;56357;52.304;4.870;2022-09-30T09:55:06;101172.34;;;20.01;nan
69245;BME280;56357;52.304;4.870;2022-09-30T09:57:36;101175.09;;;20.22;nan
69245;BME280;56357;52.304;4.870;2022-09-30T10:03:24;101160.22;;;20.06;nan
69245;BME280;56357;52.304;4.870;2022-09-30T10:08:53;101162.09;;;20.36;nan
69245;BME280;56357;52.304;4.870;2022-09-30T10:11:22;101162.09;;;20.36;nan
69245;BME280;56357;52.304;4.870;2022-09-30T10:13:55;101155.03;;;20.38;nan
69245;BME280;56357;52.304;4.870;2022-09-30T10:18:51;101158.38;;;20.50;nan
69245;BME280;56357;52.304;4.870;2022-09-30T10:21:18;101154.34;;;20.61;nan
69245;BME280;56357;52.304;4.870;2022-09-30T10:23:46;101153.16;;;20.77;nan
69245;BME280;56357;52.304;4.870;2022-09-30T10:28:48;101148.88;;;20.85;nan
69245;BME280;56357;52.304;4.870;2022-09-30T10:31:16;101145.34;;;21.08;nan
69245;BME280;56357;52.304;4.870;2022-09-30T10:33:44;101150.97;;;21.08;nan
69245;BME280;56357;52.304;4.870;2022-09-30T10:36:18;101143.69;;;21.07;nan
69245;BME280;56357;52.304;4.870;2022-09-30T10:38:58;101149.25;;;21.12;nan
69245;BME280;56357;52.304;4.870;2022-09-30T10:41:26;101142.22;;;21.15;nan
69245;BME280;56357;52.304;4.870;2022-09-30T10:43:54;101157.25;;;20.95;nan
69245;BME280;56357;52.304;4.870;2022-09-30T10:46:22;101144.84;;;20.96;nan
69245;BME280;56357;52.304;4.870;2022-09-30T10:48:49;101140.06;;;21.02;nan
69245;BME280;56357;52.304;4.870;2022-09-30T10:51:22;101152.63;;;21.14;nan
69245;BME280;56357;52.304;4.870;2022-09-30T10:53:49;101148.09;;;21.18;nan
69245;BME280;56357;52.304;4.870;2022-09-30T10:59:02;101134.94;;;21.04;nan
69245;BME280;56357;52.304;4.870;2022-09-30T11:01:31;101139.41;;;21.10;nan
69245;BME280;56357;52.304;4.870;2022-09-30T11:06:27;101141.97;;;21.11;nan
69245;BME280;56357;52.304;4.870;2022-09-30T11:08:57;101137.91;;;21.22;nan
69245;BME280;56357;52.304;4.870;2022-09-30T11:11:31;101143.34;;;21.42;nan
69245;BME280;56357;52.304;4.870;2022-09-30T11:19:25;101129.00;;;21.44;nan
69245;BME280;56357;52.304;4.870;2022-09-30T11:21:56;101127.94;;;21.35;nan
69245;BME280;56357;52.304;4.870;2022-09-30T11:24:31;101124.16;;;21.44;nan
69245;BME280;56357;52.304;4.870;2022-09-30T11:40:36;101110.59;;;21.23;nan
69245;BME280;56357;52.304;4.870;2022-09-30T11:53:18;101096.63;;;21.65;nan
69245;BME280;56357;52.304;4.870;2022-09-30T11:58:21;101086.25;;;21.60;nan
69245;BME280;56357;52.304;4.870;2022-09-30T12:00:51;101093.97;;;21.50;nan
69245;BME280;56357;52.304;4.870;2022-09-30T12:03:21;101089.13;;;21.55;nan
69245;BME280;56357;52.304;4.870;2022-09-30T12:05:54;101093.84;;;21.60;nan
69245;BME280;56357;52.304;4.870;2022-09-30T12:08:35;101084.94;;;21.53;nan
69245;BME280;56357;52.304;4.870;2022-09-30T12:11:08;101088.38;;;21.45;nan
69245;BME280;56357;52.304;4.870;2022-09-30T12:13:39;101082.59;;;21.31;nan
69245;BME280;56357;52.304;4.870;2022-09-30T12:16:13;101075.59;;;21.29;nan
69245;BME280;56357;52.304;4.870;2022-09-30T12:18:42;101075.25;;;21.35;nan
69245;BME280;56357;52.304;4.870;2022-09-30T12:21:18;101073.75;;;21.43;nan
69245;BME280;56357;52.304;4.870;2022-09-30T12:23:54;101069.50;;;21.45;nan
69245;BME280;56357;52.304;4.870;2022-09-30T12:26:24;101073.97;;;21.51;nan
69245;BME280;56357;52.304;4.870;2022-09-30T12:28:52;101077.06;;;21.50;nan
69245;BME280;56357;52.304;4.870;2022-09-30T12:34:16;101067.00;;;21.44;nan
69245;BME280;56357;52.304;4.870;2022-09-30T12:39:38;101066.25;;;21.33;nan
69245;BME280;56357;52.304;4.870;2022-09-30T12:44:47;101062.50;;;21.14;nan
69245;BME280;56357;52.304;4.870;2022-09-30T12:49:48;101066.34;;;21.23;nan
69245;BME280;56357;52.304;4.870;2022-09-30T12:52:16;101068.44;;;21.13;nan
69245;BME280;56357;52.304;4.870;2022-09-30T12:54:49;101059.06;;;21.17;nan
69245;BME280;56357;52.304;4.870;2022-09-30T12:57:23;101052.81;;;21.25;nan
69245;BME280;56357;52.304;4.870;2022-09-30T12:59:59;101052.91;;;21.15;nan
69245;BME280;56357;52.304;4.870;2022-09-30T13:02:27;101050.06;;;21.15;nan
69245;BME280;56357;52.304;4.870;2022-09-30T13:05:01;101043.09;;;21.13;nan
69245;BME280;56357;52.304;4.870;2022-09-30T13:08:07;101040.41;;;21.26;nan
69245;BME280;56357;52.304;4.870;2022-09-30T13:13:14;101032.91;;;21.17;nan
69245;BME280;56357;52.304;4.870;2022-09-30T13:15:42;101030.97;;;21.12;nan
69245;BME280;56357;52.304;4.870;2022-09-30T13:21:15;101017.56;;;20.99;nan
69245;BME280;56357;52.304;4.870;2022-09-30T13:23:45;101015.84;;;20.98;nan
69245;BME280;56357;52.304;4.870;2022-09-30T13:28:48;101015.69;;;20.89;nan
69245;BME280;56357;52.304;4.870;2022-09-30T13:31:18;101011.94;;;20.94;nan
69245;BME280;56357;52.304;4.870;2022-09-30T13:33:46;101016.41;;;21.00;nan
69245;BME280;56357;52.304;4.870;2022-09-30T13:41:39;101018.63;;;21.08;nan
69245;BME280;56357;52.304;4.870;2022-09-30T13:47:07;101011.91;;;21.04;nan
69245;BME280;56357;52.304;4.870;2022-09-30T13:49:31;101012.50;;;20.96;nan
69245;BME280;56357;52.304;4.870;2022-09-30T13:52:01;101016.41;;;21.05;nan
69245;BME280;56357;52.304;4.870;2022-09-30T13:54:32;101009.03;;;21.09;nan
69245;BME280;56357;52.304;4.870;2022-09-30T13:57:01;101007.84;;;21.15;nan
69245;BME280;56357;52.304;4.870;2022-09-30T14:22:24;100990.72;;;21.35;nan
69245;BME280;56357;52.304;4.870;2022-09-30T14:24:53;100980.84;;;21.38;nan
69245;BME280;56357;52.304;4.870;2022-09-30T14:27:42;100988.38;;;21.42;nan
69245;BME280;56357;52.304;4.870;2022-09-30T14:30:15;100978.81;;;21.43;nan
69245;BME280;56357;52.304;4.870;2022-09-30T14:32:50;100985.28;;;21.44;nan
69245;BME280;56357;52.304;4.870;2022-09-30T14:35:22;100981.53;;;21.48;nan
69245;BME280;56357;52.304;4.870;2022-09-30T14:40:27;100960.38;;;21.51;nan
69245;BME280;56357;52.304;4.870;2022-09-30T14:42:56;100967.94;;;21.55;nan
69245;BME280;56357;52.304;4.870;2022-09-30T14:45:27;100969.63;;;21.56;nan
69245;BME280;56357;52.304;4.870;2022-09-30T14:47:56;100965.63;;;21.57;nan
69245;BME280;56357;52.304;4.870;2022-09-30T14:50:28;100970.22;;;21.53;nan
69245;BME280;56357;52.304;4.870;2022-09-30T14:52:56;100973.09;;;21.48;nan
69245;BME280;56357;52.304;4.870;2022-09-30T14:57:56;100967.44;;;21.48;nan
69245;BME280;56357;52.304;4.870;2022-09-30T15:00:41;100966.78;;;21.56;nan
69245;BME280;56357;52.304;4.870;2022-09-30T15:03:11;100974.91;;;21.63;nan
69245;BME280;56357;52.304;4.870;2022-09-30T15:05:38;100963.75;;;21.53;nan
69245;BME280;56357;52.304;4.870;2022-09-30T15:08:10;100968.41;;;21.62;nan
69245;BME280;56357;52.304;4.870;2022-09-30T15:10:37;100963.91;;;21.61;nan
69245;BME280;56357;52.304;4.870;2022-09-30T15:13:11;100969.41;;;21.48;nan
69245;BME280;56357;52.304;4.870;2022-09-30T15:15:39;100965.63;;;21.57;nan
69245;BME280;56357;52.304;4.870;2022-09-30T15:20:51;100967.69;;;21.52;nan
69245;BME280;56357;52.304;4.870;2022-09-30T15:23:22;100974.34;;;21.61;nan
69245;BME280;56357;52.304;4.870;2022-09-30T15:25:49;100964.75;;;21.62;nan
69245;BME280;56357;52.304;4.870;2022-09-30T15:28:16;100970.78;;;21.74;nan
69245;BME280;56357;52.304;4.870;2022-09-30T15:30:43;100971.03;;;21.77;nan
69245;BME280;56357;52.304;4.870;2022-09-30T15:33:15;100972.97;;;21.58;nan
69245;BME280;56357;52.304;4.870;2022-09-30T15:35:42;100970.28;;;21.48;nan
69245;BME280;56357;52.304;4.870;2022-09-30T15:38:17;100977.41;;;21.41;nan
69245;BME280;56357;52.304;4.870;2022-09-30T15:40:46;100974.13;;;21.34;nan
69245;BME280;56357;52.304;4.870;2022-09-30T15:43:14;100968.91;;;21.22;nan
69245;BME280;56357;52.304;4.870;2022-09-30T15:45:41;100983.03;;;21.17;nan
69245;BME280;56357;52.304;4.870;2022-09-30T15:50:44;100982.06;;;21.03;nan
69245;BME280;56357;52.304;4.870;2022-09-30T15:53:19;100962.97;;;20.95;nan
69245;BME280;56357;52.304;4.870;2022-09-30T15:55:47;100967.50;;;20.91;nan
69245;BME280;56357;52.304;4.870;2022-09-30T16:01:08;100951.88;;;20.80;nan
69245;BME280;56357;52.304;4.870;2022-09-30T16:03:35;100952.72;;;20.80;nan
69245;BME280;56357;52.304;4.870;2022-09-30T16:06:05;100958.84;;;20.82;nan
69245;BME280;56357;52.304;4.870;2022-09-30T16:08:36;100956.09;;;20.77;nan
69245;BME280;56357;52.304;4.870;2022-09-30T16:11:04;100952.44;;;20.77;nan
69245;BME280;56357;52.304;4.870;2022-09-30T16:13:30;100951.66;;;20.71;nan
69245;BME280;56357;52.304;4.870;2022-09-30T16:15:57;100952.75;;;20.75;nan
69245;BME280;56357;52.304;4.870;2022-09-30T16:18:26;100944.59;;;20.74;nan
69245;BME280;56357;52.304;4.870;2022-09-30T16:20:59;100936.78;;;20.66;nan
69245;BME280;56357;52.304;4.870;2022-09-30T16:23:35;100936.09;;;20.50;nan
69245;BME280;56357;52.304;4.870;2022-09-30T16:28:37;100929.34;;;20.51;nan
69245;BME280;56357;52.304;4.870;2022-09-30T16:31:04;100925.69;;;20.51;nan